Welcome to Sulphur Springs Municipal Airport

Strategically located between Dallas and Texarkana, Sulphur Springs Municipal Airport (KSLR) offers exceptional business and aviation services along with superior investment opportunities, abundant space for growth, and lakefront access. We’re a friendly and bustling connector to the Texas, Oklahoma, Arkansas and Louisiana region. Sulphur Springs Municipal Airport is a rapidly emerging center for business, commerce and mobility. We invite you to stop on in!

METAR: KSLR 191715Z AUTO 36003KT 10SM CLR 30/21 A2999 RMK AO2 T03020206
holding out hand icon

Public Service Announcement

Phase 3.1 Notice: Runway Construction

Phase 3.1 of the pavement rehabilitation project will begin on Tuesday, 7 September and extend thru Friday, 10 September.

Between 7 September and 10 September: The east side of the Mid-field Ramp is barricaded and closed to all traffic

Construction on Alpha is complete.  Taxiway is open.

Construction of the Terminal Apron Extension will be ongoing.  There is no access to Tiedowns on the North side of the Apron.

Runway 01/19 will be closed for maintenance from 13 September thru 22 September

Please check NOTAMs regularly and contact UNICOM(123.075) or the airport office (903-885-4911) if you have any questions.